createdAt,value
2023-01-08T00:01:10.061Z,2.75
2023-01-08T00:03:56.107Z,2.75
2023-01-08T00:06:41.784Z,2.72
2023-01-08T00:09:27.478Z,2.69
2023-01-08T00:12:13.235Z,2.69
2023-01-08T00:14:59.050Z,2.66
2023-01-08T00:17:44.850Z,2.60
2023-01-08T00:20:30.594Z,2.56
2023-01-08T00:23:18.101Z,2.51
2023-01-08T00:26:06.216Z,2.46
2023-01-08T00:28:51.912Z,2.41
2023-01-08T00:31:37.769Z,2.34
2023-01-08T00:34:23.722Z,2.31
2023-01-08T00:37:09.213Z,2.34
2023-01-08T00:39:55.100Z,2.34
2023-01-08T00:42:40.759Z,2.35
2023-01-08T00:45:28.193Z,2.34
2023-01-08T00:48:14.013Z,2.37
2023-01-08T00:51:02.069Z,2.36
2023-01-08T00:53:47.863Z,2.36
2023-01-08T00:56:33.579Z,2.32
2023-01-08T00:59:19.286Z,2.29
2023-01-08T01:02:05.238Z,2.24
2023-01-08T01:04:51.258Z,2.22
2023-01-08T01:07:37.427Z,2.21
2023-01-08T01:10:23.801Z,2.19
2023-01-08T01:13:10.801Z,2.19
2023-01-08T01:16:00.327Z,2.15
2023-01-08T01:18:46.518Z,2.15
2023-01-08T01:21:33.128Z,2.10
2023-01-08T01:24:19.055Z,2.06
2023-01-08T01:27:04.847Z,2.03
2023-01-08T01:29:50.468Z,2.00
2023-01-08T01:32:36.183Z,1.97
2023-01-08T01:35:21.900Z,1.94
2023-01-08T01:38:07.645Z,1.90
2023-01-08T01:40:53.472Z,1.91
2023-01-08T01:43:41.316Z,1.89
2023-01-08T01:46:38.612Z,1.87
2023-01-08T01:49:24.365Z,1.84
2023-01-08T01:52:10.157Z,1.85
2023-01-08T01:55:00.247Z,1.83
2023-01-08T01:57:52.268Z,1.84
2023-01-08T02:00:38.573Z,1.85
2023-01-08T02:03:27.685Z,1.81
2023-01-08T02:06:35.294Z,1.80
2023-01-08T02:09:29.704Z,1.78
2023-01-08T02:12:26.882Z,1.71
2023-01-08T02:15:13.288Z,1.74
2023-01-08T02:18:06.060Z,1.74
2023-01-08T02:21:10.692Z,1.69
2023-01-08T02:24:14.401Z,1.66
2023-01-08T02:27:01.528Z,1.67
2023-01-08T02:29:48.051Z,1.65
2023-01-08T02:32:37.524Z,1.61
2023-01-08T02:35:23.223Z,1.62
2023-01-08T02:38:14.211Z,1.59
2023-01-08T02:41:10.223Z,1.53
2023-01-08T02:43:57.482Z,1.51
2023-01-08T02:46:43.902Z,1.46
2023-01-08T02:49:33.159Z,1.52
2023-01-08T02:52:19.758Z,1.50
2023-01-08T02:55:05.925Z,1.46
2023-01-08T02:57:52.164Z,1.43
2023-01-08T03:00:38.056Z,1.40
2023-01-08T03:03:26.179Z,1.42
2023-01-08T03:06:14.556Z,1.41
2023-01-08T03:09:00.894Z,1.38
2023-01-08T03:12:02.516Z,1.31
2023-01-08T03:15:04.655Z,1.30
2023-01-08T03:17:53.708Z,1.27
2023-01-08T03:20:39.921Z,1.23
2023-01-08T03:23:26.928Z,1.22
2023-01-08T03:26:16.046Z,1.22
2023-01-08T03:29:03.318Z,1.24
2023-01-08T03:31:50.870Z,1.23
2023-01-08T03:34:38.517Z,1.25
2023-01-08T03:37:28.477Z,1.23
2023-01-08T03:40:22.147Z,1.26
2023-01-08T03:43:07.706Z,1.29
2023-01-08T03:45:57.446Z,1.28
2023-01-08T03:48:44.076Z,1.26
2023-01-08T03:51:44.957Z,1.23
2023-01-08T03:54:34.228Z,1.26
2023-01-08T03:57:20.107Z,1.26
2023-01-08T04:00:06.800Z,1.21
2023-01-08T04:02:52.883Z,1.21
2023-01-08T04:05:38.585Z,1.12
2023-01-08T04:08:24.394Z,1.14
2023-01-08T04:11:10.067Z,1.11
2023-01-08T04:13:56.136Z,1.05
2023-01-08T04:16:42.100Z,1.04
2023-01-08T04:19:27.877Z,0.98
2023-01-08T04:22:13.443Z,1.01
2023-01-08T04:24:59.117Z,0.99
2023-01-08T04:27:44.887Z,0.95
2023-01-08T04:30:31.541Z,0.97
2023-01-08T04:33:23.554Z,0.93
2023-01-08T04:36:10.117Z,0.95
2023-01-08T04:39:00.221Z,0.91
2023-01-08T04:41:49.567Z,0.92
2023-01-08T04:44:36.474Z,0.93
2023-01-08T04:47:24.262Z,0.90
2023-01-08T04:50:21.432Z,0.87
2023-01-08T04:53:07.327Z,0.86
2023-01-08T04:55:53.360Z,0.84
2023-01-08T04:58:40.034Z,0.82
2023-01-08T05:01:27.663Z,0.82
2023-01-08T05:04:13.493Z,0.81
2023-01-08T05:06:59.067Z,0.81
2023-01-08T05:09:44.980Z,0.78
2023-01-08T05:12:30.656Z,0.70
2023-01-08T05:15:16.400Z,0.71
2023-01-08T05:18:04.462Z,0.70
2023-01-08T05:20:50.375Z,0.68
2023-01-08T05:23:36.115Z,0.65
2023-01-08T05:26:21.736Z,0.67
2023-01-08T05:29:10.080Z,0.66
2023-01-08T05:32:04.054Z,0.63
2023-01-08T05:34:50.503Z,0.62
2023-01-08T05:37:36.963Z,0.60
2023-01-08T05:40:23.072Z,0.58
2023-01-08T05:43:09.278Z,0.58
2023-01-08T05:45:58.312Z,0.55
2023-01-08T05:48:47.470Z,0.56
2023-01-08T05:51:33.213Z,0.56
2023-01-08T05:54:18.704Z,0.51
2023-01-08T05:57:04.436Z,0.51
2023-01-08T06:00:01.695Z,0.48
2023-01-08T06:03:03.868Z,0.48
2023-01-08T06:05:50.956Z,0.48
2023-01-08T06:08:36.516Z,0.43
2023-01-08T06:11:22.320Z,0.42
2023-01-08T06:14:07.981Z,0.37
2023-01-08T06:16:53.855Z,0.31
2023-01-08T06:19:39.545Z,0.30
2023-01-08T06:22:25.538Z,0.31
2023-01-08T06:25:11.376Z,0.29
2023-01-08T06:27:57.044Z,0.28
2023-01-08T06:31:04.824Z,0.25
2023-01-08T06:34:01.732Z,0.23
2023-01-08T06:36:47.312Z,0.29
2023-01-08T06:39:32.998Z,0.30
2023-01-08T06:42:18.667Z,0.29
2023-01-08T06:45:04.784Z,0.31
2023-01-08T06:47:50.930Z,0.38
2023-01-08T06:50:36.569Z,0.40
2023-01-08T06:53:22.263Z,0.40
2023-01-08T06:56:10.895Z,0.39
2023-01-08T06:58:56.699Z,0.40
2023-01-08T07:01:42.520Z,0.39
2023-01-08T07:04:28.500Z,0.39
2023-01-08T07:07:14.912Z,0.39
2023-01-08T07:10:00.876Z,0.42
2023-01-08T07:12:46.455Z,0.43
2023-01-08T07:15:32.067Z,0.46
2023-01-08T07:18:17.744Z,0.46
2023-01-08T07:21:04.496Z,0.47
2023-01-08T07:23:50.402Z,0.51
2023-01-08T07:26:36.666Z,0.53
2023-01-08T07:29:22.375Z,0.55
2023-01-08T07:32:07.968Z,0.55
2023-01-08T07:34:54.811Z,0.60
2023-01-08T07:37:42.480Z,0.56
2023-01-08T07:40:28.097Z,0.55
2023-01-08T07:43:14.049Z,0.56
2023-01-08T07:46:02.811Z,0.56
2023-01-08T07:48:48.855Z,0.59
2023-01-08T07:51:34.958Z,0.59
2023-01-08T07:54:21.871Z,0.60
2023-01-08T07:57:07.855Z,0.57
2023-01-08T07:59:53.549Z,0.61
2023-01-08T08:02:39.394Z,0.60
2023-01-08T08:05:25.145Z,0.66
2023-01-08T08:08:12.161Z,0.68
2023-01-08T08:10:58.072Z,0.67
2023-01-08T08:13:45.128Z,0.73
2023-01-08T08:16:31.205Z,0.77
2023-01-08T08:19:16.929Z,0.82
2023-01-08T08:22:02.727Z,0.88
2023-01-08T08:24:48.409Z,0.94
2023-01-08T08:27:34.275Z,0.99
2023-01-08T08:30:20.986Z,1.06
2023-01-08T08:33:07.627Z,1.12
2023-01-08T08:35:53.496Z,1.16
2023-01-08T08:38:40.022Z,1.21
2023-01-08T08:41:26.071Z,1.27
2023-01-08T08:44:11.890Z,1.35
2023-01-08T08:46:58.053Z,1.41
2023-01-08T08:49:43.746Z,1.48
2023-01-08T08:52:30.979Z,1.56
2023-01-08T08:55:17.922Z,1.61
2023-01-08T08:58:06.933Z,1.66
2023-01-08T09:00:52.895Z,1.72
2023-01-08T09:03:38.748Z,1.75
2023-01-08T09:06:27.625Z,1.79
2023-01-08T09:09:15.546Z,1.87
2023-01-08T09:12:01.447Z,1.97
2023-01-08T09:14:50.223Z,2.14
2023-01-08T09:17:37.021Z,2.33
2023-01-08T09:20:24.797Z,2.61
2023-01-08T09:23:10.895Z,2.83
2023-01-08T09:26:01.908Z,3.20
2023-01-08T09:28:48.087Z,3.52
2023-01-08T10:05:38.059Z,6.50
2023-01-08T10:08:23.966Z,6.66
2023-01-08T10:11:11.091Z,6.86
2023-01-08T10:13:57.758Z,7.00
2023-01-08T10:16:43.980Z,7.12
2023-01-08T10:19:29.873Z,7.30
2023-01-08T10:22:18.131Z,7.46
2023-01-08T10:25:07.959Z,7.45
2023-01-08T10:28:23.391Z,7.70
2023-01-08T10:31:15.497Z,7.87
2023-01-08T10:34:55.277Z,8.07
2023-01-08T10:37:42.670Z,8.27
2023-01-08T10:40:30.851Z,8.45
2023-01-08T10:43:49.828Z,8.62
2023-01-08T10:46:47.748Z,8.81
2023-01-08T10:49:39.334Z,9.02
2023-01-08T10:52:29.530Z,9.22
2023-01-08T10:55:48.221Z,9.43
2023-01-08T10:58:43.673Z,9.61
2023-01-08T11:02:11.555Z,9.79
2023-01-08T11:04:57.460Z,9.94
2023-01-08T11:07:56.963Z,10.13
2023-01-08T11:10:42.905Z,10.30
2023-01-08T11:13:29.709Z,10.49
2023-01-08T11:16:15.688Z,10.67
2023-01-08T11:19:01.621Z,10.82
2023-01-08T11:21:58.547Z,11.01
2023-01-08T11:24:44.901Z,11.19
2023-01-08T11:27:39.830Z,11.36
2023-01-08T11:30:27.421Z,11.53
2023-01-08T11:33:19.075Z,11.64
2023-01-08T11:36:18.776Z,11.77
2023-01-08T11:39:05.932Z,11.82
2023-01-08T11:42:12.924Z,11.91
2023-01-08T11:45:12.078Z,12.00
2023-01-08T11:48:06.272Z,12.10
2023-01-08T11:51:03.681Z,12.22
2023-01-08T11:54:33.179Z,12.42
2023-01-08T11:57:46.926Z,12.65
2023-01-08T12:00:59.179Z,12.80
2023-01-08T12:03:55.920Z,12.93
2023-01-08T12:07:14.223Z,13.09
2023-01-08T12:10:46.665Z,13.20
2023-01-08T12:14:02.506Z,13.25
2023-01-08T12:17:24.952Z,13.35
2023-01-08T12:20:50.817Z,13.47
2023-01-08T12:24:01.633Z,13.57
2023-01-08T12:27:17.134Z,13.64
2023-01-08T12:30:15.215Z,13.71
2023-01-08T12:33:17.182Z,13.76
2023-01-08T12:36:10.094Z,13.82
2023-01-08T12:39:00.877Z,13.90
2023-01-08T12:41:47.290Z,13.97
2023-01-08T12:44:34.568Z,14.13
2023-01-08T12:47:25.669Z,14.29
2023-01-08T12:50:35.913Z,14.43
2023-01-08T12:53:30.734Z,14.43
2023-01-08T12:56:22.491Z,14.34
2023-01-08T12:59:34.480Z,14.01
2023-01-08T13:02:49.610Z,13.57
2023-01-08T13:05:37.173Z,13.18
2023-01-08T13:08:26.155Z,12.86
2023-01-08T13:11:12.937Z,12.59
2023-01-08T13:14:01.591Z,12.35
2023-01-08T13:16:47.681Z,12.11
2023-01-08T13:19:45.766Z,11.90
2023-01-08T13:22:34.220Z,11.73
2023-01-08T13:25:20.162Z,11.62
2023-01-08T13:28:47.936Z,11.70
2023-01-08T13:31:40.995Z,12.03
2023-01-08T13:34:42.280Z,12.45
2023-01-08T13:37:28.561Z,12.89
2023-01-08T13:40:46.420Z,13.30
2023-01-08T13:43:39.156Z,13.73
2023-01-08T13:46:25.272Z,14.10
2023-01-08T13:49:45.227Z,14.51
2023-01-08T13:52:39.947Z,14.95
2023-01-08T13:55:31.776Z,15.18
2023-01-08T13:58:26.668Z,15.30
2023-01-08T14:01:13.490Z,15.39
2023-01-08T14:03:59.350Z,15.44
2023-01-08T14:06:45.209Z,15.52
2023-01-08T14:09:33.207Z,15.49
2023-01-08T14:12:23.268Z,15.33
2023-01-08T14:15:25.216Z,15.02
2023-01-08T14:18:13.980Z,14.60
2023-01-08T14:20:59.978Z,14.16
2023-01-08T14:23:47.492Z,13.77
2023-01-08T14:26:38.832Z,13.40
2023-01-08T14:29:36.675Z,13.05
2023-01-08T14:32:29.354Z,12.75
2023-01-08T14:35:18.219Z,12.45
2023-01-08T14:38:05.738Z,12.22
2023-01-08T14:41:02.487Z,11.98
2023-01-08T14:43:56.535Z,11.77
2023-01-08T14:46:46.157Z,11.58
2023-01-08T14:49:34.675Z,11.40
2023-01-08T14:52:21.284Z,11.25
2023-01-08T14:55:07.280Z,11.12
2023-01-08T14:57:55.045Z,11.03
2023-01-08T15:00:53.357Z,10.90
2023-01-08T15:03:42.655Z,10.80
2023-01-08T15:06:31.127Z,10.69
2023-01-08T15:09:34.700Z,10.57
2023-01-08T15:12:30.695Z,10.48
2023-01-08T15:15:23.567Z,10.37
2023-01-08T15:18:12.242Z,10.26
2023-01-08T15:20:58.398Z,10.17
2023-01-08T15:23:50.627Z,10.05
2023-01-08T15:26:43.319Z,9.94
2023-01-08T15:29:34.615Z,9.84
2023-01-08T15:32:22.500Z,9.72
2023-01-08T15:35:16.263Z,9.64
2023-01-08T15:38:02.202Z,9.51
2023-01-08T15:40:48.481Z,9.45
2023-01-08T15:43:34.461Z,9.36
2023-01-08T15:46:20.177Z,9.25
2023-01-08T15:49:06.038Z,9.16
2023-01-08T15:51:52.370Z,9.07
2023-01-08T15:54:38.479Z,8.99
2023-01-08T15:57:24.704Z,8.92
2023-01-08T16:00:13.085Z,8.85
2023-01-08T16:03:00.083Z,8.73
2023-01-08T16:05:46.066Z,8.72
2023-01-08T16:08:31.761Z,8.65
2023-01-08T16:11:18.128Z,8.59
2023-01-08T16:14:04.038Z,8.53
2023-01-08T16:16:49.946Z,8.48
2023-01-08T16:19:35.915Z,8.36
2023-01-08T16:22:21.802Z,8.27
2023-01-08T16:25:09.320Z,8.27
2023-01-08T16:27:55.161Z,8.20
2023-01-08T16:30:42.712Z,8.16
2023-01-08T16:33:28.927Z,8.09
2023-01-08T16:36:14.900Z,8.06
2023-01-08T16:39:00.796Z,7.99
2023-01-08T16:41:49.526Z,7.94
2023-01-08T16:44:36.553Z,7.92
2023-01-08T16:47:22.578Z,7.91
2023-01-08T16:50:10.249Z,7.88
2023-01-08T16:52:55.873Z,7.85
2023-01-08T16:55:41.840Z,7.80
2023-01-08T16:58:29.510Z,7.74
2023-01-08T17:01:15.576Z,7.64
2023-01-08T17:04:01.904Z,7.63
2023-01-08T17:06:48.039Z,7.58
2023-01-08T17:09:34.014Z,7.52
2023-01-08T17:12:22.643Z,7.44
2023-01-08T17:15:08.700Z,7.37
2023-01-08T17:17:55.134Z,7.27
2023-01-08T17:20:41.171Z,7.23
2023-01-08T17:23:29.658Z,7.19
2023-01-08T17:26:19.874Z,7.11
2023-01-08T17:29:05.800Z,7.05
2023-01-08T17:31:51.584Z,7.02
2023-01-08T17:34:37.344Z,6.96
2023-01-08T17:37:22.918Z,6.88
2023-01-08T17:40:09.448Z,6.86
2023-01-08T17:42:55.808Z,6.81
2023-01-08T17:45:41.623Z,6.79
2023-01-08T17:48:27.418Z,6.73
2023-01-08T17:51:14.456Z,6.67
2023-01-08T17:54:01.408Z,6.64
2023-01-08T17:56:48.984Z,6.61
2023-01-08T17:59:35.124Z,6.56
2023-01-08T18:02:21.157Z,6.51
2023-01-08T18:05:07.699Z,6.49
2023-01-08T18:07:53.351Z,6.46
2023-01-08T18:10:40.099Z,6.45
2023-01-08T18:13:25.781Z,6.41
2023-01-08T18:16:13.664Z,6.37
2023-01-08T18:19:00.111Z,6.32
2023-01-08T18:21:47.212Z,6.28
2023-01-08T18:24:33.891Z,6.24
2023-01-08T18:27:19.641Z,6.21
2023-01-08T18:30:06.030Z,6.14
2023-01-08T18:32:51.994Z,6.11
2023-01-08T18:35:37.691Z,6.08
2023-01-08T18:38:23.381Z,6.07
2023-01-08T18:41:10.632Z,6.05
2023-01-08T18:43:56.586Z,6.07
2023-01-08T18:46:42.586Z,6.01
2023-01-08T18:49:28.697Z,6.02
2023-01-08T18:52:15.356Z,5.98
2023-01-08T18:55:00.931Z,5.95
2023-01-08T18:57:49.042Z,5.91
2023-01-08T19:00:35.521Z,5.85
2023-01-08T19:03:22.810Z,5.80
2023-01-08T19:06:17.001Z,5.77
2023-01-08T19:09:04.039Z,5.75
2023-01-08T19:11:49.869Z,5.72
2023-01-08T19:14:35.719Z,5.67
2023-01-08T19:17:21.727Z,5.66
2023-01-08T19:20:08.333Z,5.64
2023-01-08T19:22:54.184Z,5.63
2023-01-08T19:25:40.657Z,5.55
2023-01-08T19:28:26.495Z,5.55
2023-01-08T19:31:15.094Z,5.52
2023-01-08T19:34:01.894Z,5.48
2023-01-08T19:36:48.109Z,5.45
2023-01-08T19:39:34.076Z,5.41
2023-01-08T19:42:38.435Z,5.34
2023-01-08T19:45:24.751Z,5.26
2023-01-08T19:48:10.797Z,5.21
2023-01-08T19:50:56.773Z,5.19
2023-01-08T19:53:42.745Z,5.09
2023-01-08T19:56:29.325Z,5.08
2023-01-08T19:59:15.136Z,4.92
2023-01-08T20:02:01.099Z,4.95
2023-01-08T20:04:47.318Z,4.90
2023-01-08T20:07:33.333Z,4.88
2023-01-08T20:10:19.184Z,4.85
2023-01-08T20:13:05.162Z,4.83
2023-01-08T20:15:57.587Z,4.79
2023-01-08T20:18:44.229Z,4.82
2023-01-08T20:21:33.859Z,4.78
2023-01-08T20:24:19.725Z,4.74
2023-01-08T20:27:07.375Z,4.70
2023-01-08T20:29:53.369Z,4.70
2023-01-08T20:32:39.139Z,4.67
2023-01-08T20:35:24.911Z,4.62
2023-01-08T20:38:10.431Z,4.58
2023-01-08T20:40:56.288Z,4.55
2023-01-08T20:43:41.990Z,4.51
2023-01-08T20:46:28.868Z,4.42
2023-01-08T20:49:16.654Z,4.38
2023-01-08T20:52:04.660Z,4.34
2023-01-08T20:54:53.071Z,4.27
2023-01-08T20:57:39.196Z,4.18
2023-01-08T21:00:25.894Z,4.16
2023-01-08T21:03:12.063Z,4.12
2023-01-08T21:05:58.130Z,4.09
2023-01-08T21:08:45.909Z,4.00
2023-01-08T21:11:31.971Z,4.02
2023-01-08T21:14:18.016Z,3.99
2023-01-08T21:17:03.771Z,3.99
2023-01-08T21:19:49.414Z,3.99
2023-01-08T21:22:35.292Z,4.01
2023-01-08T21:25:21.176Z,4.02
2023-01-08T21:28:08.269Z,4.03
2023-01-08T21:30:54.398Z,4.03
2023-01-08T21:33:41.650Z,4.02
2023-01-08T21:36:29.603Z,4.01
2023-01-08T21:39:15.466Z,3.96
2023-01-08T21:42:19.896Z,3.94
2023-01-08T21:45:24.952Z,3.91
2023-01-08T21:48:12.997Z,3.87
2023-01-08T21:50:59.250Z,3.85
2023-01-08T21:53:45.229Z,3.81
2023-01-08T21:56:31.275Z,3.78
2023-01-08T21:59:18.073Z,3.74
2023-01-08T22:02:05.089Z,3.64
2023-01-08T22:04:54.777Z,3.69
2023-01-08T22:07:40.727Z,3.65
2023-01-08T22:10:26.590Z,3.61
2023-01-08T22:13:12.427Z,3.60
2023-01-08T22:16:03.497Z,3.58
2023-01-08T22:18:49.393Z,3.58
2023-01-08T22:21:35.403Z,3.58
2023-01-08T22:24:21.253Z,3.57
2023-01-08T22:27:08.276Z,3.54
2023-01-08T22:29:54.658Z,3.51
2023-01-08T22:32:40.514Z,3.49
2023-01-08T22:35:27.681Z,3.46
2023-01-08T22:38:13.973Z,3.43
2023-01-08T22:40:59.763Z,3.40
2023-01-08T22:43:45.599Z,3.41
2023-01-08T22:46:31.480Z,3.43
2023-01-08T22:49:17.349Z,3.43
2023-01-08T22:52:03.371Z,3.47
2023-01-08T22:54:49.226Z,3.51
2023-01-08T22:57:35.133Z,3.54
2023-01-08T23:00:20.860Z,3.56
2023-01-08T23:03:07.153Z,3.62
2023-01-08T23:06:02.975Z,3.62
2023-01-08T23:08:49.331Z,3.62
2023-01-08T23:11:35.284Z,3.65
2023-01-08T23:14:20.930Z,3.64
2023-01-08T23:17:07.156Z,3.66
2023-01-08T23:19:53.030Z,3.67
2023-01-08T23:22:38.988Z,3.70
2023-01-08T23:25:24.903Z,3.71
2023-01-08T23:28:10.480Z,3.71
2023-01-08T23:30:56.178Z,3.63
2023-01-08T23:33:42.181Z,3.53
2023-01-08T23:36:27.924Z,3.43
2023-01-08T23:39:13.640Z,3.35
2023-01-08T23:41:59.375Z,3.27
2023-01-08T23:44:44.954Z,3.25
2023-01-08T23:47:30.720Z,3.21
2023-01-08T23:50:16.657Z,3.17
2023-01-08T23:53:02.885Z,3.15
2023-01-08T23:55:48.766Z,3.11
2023-01-08T23:58:34.636Z,3.13
